createdAt,value
2018-03-27T00:00:08.827Z,43.70
2018-03-27T00:02:36.300Z,49.90
2018-03-27T00:05:03.778Z,52.47
2018-03-27T00:07:32.015Z,51.37
2018-03-27T00:09:59.470Z,45.87
2018-03-27T00:12:26.947Z,47.43
2018-03-27T00:14:54.424Z,51.70
2018-03-27T00:17:22.666Z,55.33
2018-03-27T00:19:50.146Z,51.53
2018-03-27T00:22:17.611Z,45.37
2018-03-27T00:24:45.847Z,39.23
2018-03-27T00:27:12.843Z,46.43
2018-03-27T00:29:53.034Z,41.23
2018-03-27T00:32:32.335Z,47.60
2018-03-27T00:35:12.520Z,49.37
2018-03-27T00:37:52.080Z,45.43
2018-03-27T00:40:31.551Z,42.23
2018-03-27T00:43:04.726Z,44.63
2018-03-27T00:45:32.131Z,35.70
2018-03-27T00:47:59.606Z,49.30
2018-03-27T00:50:27.071Z,39.43
2018-03-27T00:52:54.550Z,38.10
2018-03-27T00:55:22.062Z,47.30
2018-03-27T00:57:49.504Z,41.83
2018-03-27T01:00:17.739Z,38.80
2018-03-27T01:02:45.214Z,36.53
2018-03-27T01:05:12.730Z,40.43
2018-03-27T01:07:40.202Z,45.20
2018-03-27T01:10:07.674Z,37.28
2018-03-27T01:12:35.147Z,37.60
2018-03-27T01:15:02.611Z,36.23
2018-03-27T01:17:30.078Z,39.50
2018-03-27T01:19:58.320Z,37.30
2018-03-27T01:22:25.783Z,41.13
2018-03-27T01:24:53.258Z,39.43
2018-03-27T01:27:20.738Z,30.20
2018-03-27T01:29:48.979Z,40.57
2018-03-27T01:32:16.434Z,34.80
2018-03-27T01:34:43.910Z,41.67
2018-03-27T01:37:11.391Z,36.97
2018-03-27T01:39:39.626Z,31.30
2018-03-27T01:42:07.090Z,34.80
2018-03-27T01:44:34.574Z,35.40
2018-03-27T01:47:02.799Z,37.67
2018-03-27T01:49:30.278Z,32.57
2018-03-27T01:51:57.742Z,37.63
2018-03-27T01:54:25.228Z,32.73
2018-03-27T01:56:52.686Z,32.73
2018-03-27T01:59:20.943Z,32.73
2018-03-27T02:01:48.406Z,29.57
2018-03-27T02:04:16.655Z,34.93
2018-03-27T02:06:44.122Z,32.20
2018-03-27T02:09:11.602Z,33.10
2018-03-27T02:11:44.854Z,35.10
2018-03-27T02:14:18.169Z,34.63
2018-03-27T02:16:51.355Z,33.17
2018-03-27T02:19:24.563Z,34.70
2018-03-27T02:21:51.522Z,36.97
2018-03-27T02:24:19.772Z,37.93
2018-03-27T02:26:47.240Z,32.07
2018-03-27T02:29:14.724Z,33.15
2018-03-27T02:31:42.958Z,29.87
2018-03-27T02:34:10.439Z,26.73
2018-03-27T02:36:37.904Z,30.40
2018-03-27T02:39:05.378Z,36.97
2018-03-27T02:41:32.859Z,35.35
2018-03-27T02:44:00.347Z,32.78
2018-03-27T02:46:27.822Z,37.73
2018-03-27T02:48:55.321Z,39.95
2018-03-27T02:51:23.550Z,34.88
2018-03-27T02:53:51.026Z,36.60
2018-03-27T02:56:18.493Z,28.33
2018-03-27T02:58:46.726Z,33.87
2018-03-27T03:01:14.206Z,32.30
2018-03-27T03:03:42.456Z,28.73
2018-03-27T03:06:10.716Z,26.30
2018-03-27T03:08:38.195Z,28.25
2018-03-27T03:11:05.691Z,40.67
2018-03-27T03:13:33.163Z,27.40
2018-03-27T03:16:01.405Z,24.12
2018-03-27T03:18:28.886Z,22.93
2018-03-27T03:20:56.368Z,31.80
2018-03-27T03:23:23.840Z,22.97
2018-03-27T03:25:51.314Z,26.13
2018-03-27T03:28:18.854Z,33.03
2018-03-27T03:30:46.283Z,34.25
2018-03-27T03:33:14.517Z,30.47
2018-03-27T03:35:41.993Z,36.67
2018-03-27T03:38:09.487Z,30.40
2018-03-27T03:40:36.976Z,29.63
2018-03-27T03:43:04.456Z,28.85
2018-03-27T03:45:31.936Z,25.70
2018-03-27T03:47:59.404Z,31.12
2018-03-27T03:50:27.655Z,25.57
2018-03-27T03:52:55.160Z,26.43
2018-03-27T03:55:22.648Z,26.95
2018-03-27T03:57:50.110Z,21.17
2018-03-27T04:00:17.587Z,23.77
2018-03-27T04:02:45.060Z,29.27
2018-03-27T04:05:12.560Z,25.15
2018-03-27T04:07:40.031Z,25.30
2018-03-27T04:10:07.515Z,33.97
2018-03-27T04:12:34.986Z,24.83
2018-03-27T04:15:02.455Z,33.40
2018-03-27T04:17:29.935Z,26.07
2018-03-27T04:19:58.557Z,28.77
2018-03-27T04:22:26.035Z,23.93
2018-03-27T04:24:53.947Z,29.70
2018-03-27T04:27:22.189Z,25.75
2018-03-27T04:29:49.676Z,25.60
2018-03-27T04:32:17.924Z,27.73
2018-03-27T04:34:45.423Z,23.73
2018-03-27T04:37:13.655Z,26.17
2018-03-27T04:39:41.138Z,29.40
2018-03-27T04:42:08.603Z,28.43
2018-03-27T04:44:36.856Z,24.37
2018-03-27T04:47:04.341Z,24.80
2018-03-27T04:49:32.595Z,27.50
2018-03-27T04:52:00.068Z,27.67
2018-03-27T04:54:28.323Z,25.05
2018-03-27T04:56:55.799Z,27.05
2018-03-27T04:59:24.055Z,23.80
2018-03-27T05:01:51.538Z,25.10
2018-03-27T05:04:19.778Z,24.80
2018-03-27T05:06:47.261Z,24.00
2018-03-27T05:09:15.513Z,27.42
2018-03-27T05:11:43.762Z,25.58
2018-03-27T05:14:11.243Z,33.87
2018-03-27T05:16:38.727Z,28.60
2018-03-27T05:19:06.194Z,24.90
2018-03-27T05:21:33.680Z,28.50
2018-03-27T05:24:01.170Z,31.70
2018-03-27T05:26:29.451Z,24.33
2018-03-27T05:28:57.698Z,30.70
2018-03-27T05:31:25.190Z,23.95
2018-03-27T05:33:52.664Z,23.77
2018-03-27T05:36:20.147Z,33.72
2018-03-27T05:38:48.383Z,27.17
2018-03-27T05:41:15.886Z,33.95
2018-03-27T05:43:44.116Z,31.35
2018-03-27T05:46:11.599Z,31.37
2018-03-27T05:48:39.110Z,30.42
2018-03-27T05:51:06.580Z,27.62
2018-03-27T05:53:34.050Z,27.95
2018-03-27T05:56:02.548Z,24.63
2018-03-27T05:58:30.006Z,23.83
2018-03-27T06:00:57.491Z,28.20
2018-03-27T06:03:25.737Z,33.03
2018-03-27T06:05:53.224Z,29.13
2018-03-27T06:08:21.455Z,24.23
2018-03-27T06:10:48.940Z,27.00
2018-03-27T06:13:16.410Z,25.27
2018-03-27T06:15:44.662Z,22.98
2018-03-27T06:18:12.135Z,27.73
2018-03-27T06:20:39.611Z,24.13
2018-03-27T06:23:07.852Z,24.20
2018-03-27T06:25:35.331Z,23.07
2018-03-27T06:28:02.816Z,22.37
2018-03-27T06:30:31.067Z,21.20
2018-03-27T06:32:58.536Z,27.20
2018-03-27T06:35:26.012Z,27.77
2018-03-27T06:37:53.479Z,33.17
2018-03-27T06:40:20.965Z,32.00
2018-03-27T06:42:48.418Z,36.07
2018-03-27T06:45:15.903Z,30.27
2018-03-27T06:47:43.374Z,34.70
2018-03-27T06:50:10.848Z,32.33
2018-03-27T06:52:39.086Z,28.10
2018-03-27T06:55:06.572Z,23.60
2018-03-27T06:57:34.808Z,30.97
2018-03-27T07:00:02.280Z,28.03
2018-03-27T07:02:30.569Z,26.70
2018-03-27T07:04:58.006Z,30.03
2018-03-27T07:07:25.491Z,29.67
2018-03-27T07:09:52.955Z,29.53
2018-03-27T07:12:21.202Z,31.77
2018-03-27T07:14:48.712Z,30.27
2018-03-27T07:17:16.178Z,32.80
2018-03-27T07:19:43.655Z,35.00
2018-03-27T07:22:11.140Z,40.77
2018-03-27T07:24:38.611Z,33.57
2018-03-27T07:27:06.104Z,29.80
2018-03-27T07:29:33.582Z,31.97
2018-03-27T07:32:01.051Z,31.60
2018-03-27T07:34:28.527Z,30.33
2018-03-27T07:36:56.010Z,26.50
2018-03-27T07:39:23.484Z,29.10
2018-03-27T07:41:51.744Z,33.47
2018-03-27T07:44:19.199Z,35.63
2018-03-27T07:46:46.678Z,32.60
2018-03-27T07:49:14.969Z,33.83
2018-03-27T07:51:42.395Z,33.13
2018-03-27T07:54:09.866Z,27.30
2018-03-27T07:56:38.108Z,30.00
2018-03-27T07:59:05.574Z,40.23
2018-03-27T08:01:33.107Z,23.43
2018-03-27T08:04:00.589Z,29.77
2018-03-27T08:06:28.069Z,25.70
2018-03-27T08:08:55.552Z,21.93
2018-03-27T08:11:23.832Z,25.93
2018-03-27T08:13:51.304Z,31.47
2018-03-27T08:16:18.796Z,26.67
2018-03-27T08:18:46.266Z,25.77
2018-03-27T08:21:13.756Z,24.57
2018-03-27T08:23:41.993Z,29.13
2018-03-27T08:26:09.473Z,25.83
2018-03-27T08:28:36.942Z,28.00
2018-03-27T08:31:05.199Z,24.30
2018-03-27T08:33:33.481Z,19.90
2018-03-27T08:36:00.956Z,20.13
2018-03-27T08:38:29.202Z,15.20
2018-03-27T08:40:56.688Z,21.10
2018-03-27T08:43:24.957Z,17.50
2018-03-27T08:45:52.415Z,21.93
2018-03-27T08:48:20.646Z,22.80
2018-03-27T08:50:48.124Z,20.87
2018-03-27T08:53:15.614Z,19.90
2018-03-27T08:55:43.872Z,19.23
2018-03-27T08:58:11.331Z,18.30
2018-03-27T09:00:38.824Z,21.00
2018-03-27T09:03:07.060Z,16.13
2018-03-27T09:05:34.536Z,17.80
2018-03-27T09:08:02.784Z,15.20
2018-03-27T09:10:30.272Z,20.93
2018-03-27T09:12:57.756Z,16.57
2018-03-27T09:15:25.237Z,13.80
2018-03-27T09:17:52.726Z,14.90
2018-03-27T09:20:20.212Z,14.67
2018-03-27T09:22:48.496Z,11.27
2018-03-27T09:25:16.740Z,10.07
2018-03-27T09:27:44.228Z,11.17
2018-03-27T09:30:12.463Z,14.20
2018-03-27T09:32:39.951Z,13.30
2018-03-27T09:35:08.188Z,9.70
2018-03-27T09:37:35.661Z,7.23
2018-03-27T09:40:03.130Z,10.70
2018-03-27T09:42:30.604Z,9.20
2018-03-27T09:44:58.831Z,9.17
2018-03-27T09:47:26.327Z,7.60
2018-03-27T09:49:53.782Z,9.30
2018-03-27T09:52:21.260Z,7.93
2018-03-27T09:54:49.488Z,11.00
2018-03-27T09:57:16.972Z,9.40
2018-03-27T09:59:44.447Z,10.33
2018-03-27T10:02:11.927Z,7.43
2018-03-27T10:04:40.151Z,9.40
2018-03-27T10:07:07.626Z,9.57
2018-03-27T10:09:35.098Z,7.07
2018-03-27T10:12:03.363Z,11.47
2018-03-27T10:14:30.835Z,10.67
2018-03-27T10:16:58.302Z,10.53
2018-03-27T10:19:26.544Z,8.73
2018-03-27T10:21:54.041Z,7.33
2018-03-27T10:24:22.269Z,8.80
2018-03-27T10:26:50.584Z,9.00
2018-03-27T10:29:18.390Z,7.93
2018-03-27T10:31:45.864Z,9.20
2018-03-27T10:34:13.332Z,7.63
2018-03-27T10:36:40.811Z,5.80
2018-03-27T10:39:08.278Z,9.00
2018-03-27T10:41:35.760Z,7.00
2018-03-27T10:44:03.985Z,5.77
2018-03-27T10:46:31.464Z,5.43
2018-03-27T10:48:58.927Z,9.60
2018-03-27T10:51:26.428Z,8.80
2018-03-27T10:53:53.898Z,7.10
2018-03-27T10:56:21.374Z,6.47
2018-03-27T10:58:48.852Z,19.63
2018-03-27T11:01:16.321Z,7.23
2018-03-27T11:03:43.879Z,9.00
2018-03-27T11:06:11.338Z,10.50
2018-03-27T11:08:38.823Z,8.60
2018-03-27T11:11:07.051Z,9.30
2018-03-27T11:13:34.536Z,7.57
2018-03-27T11:16:02.776Z,8.37
2018-03-27T11:18:30.251Z,7.93
2018-03-27T11:20:57.719Z,7.53
2018-03-27T11:23:25.198Z,9.20
2018-03-27T11:25:53.427Z,9.60
2018-03-27T11:28:21.674Z,10.33
2018-03-27T11:30:49.139Z,10.13
2018-03-27T11:33:17.267Z,10.17
2018-03-27T11:35:44.748Z,9.27
2018-03-27T11:38:12.988Z,10.80
2018-03-27T11:40:40.470Z,8.47
2018-03-27T11:43:07.947Z,11.60
2018-03-27T11:45:36.183Z,11.00
2018-03-27T11:48:03.663Z,10.80
2018-03-27T11:50:31.891Z,9.37
2018-03-27T11:52:59.388Z,10.13
2018-03-27T11:55:26.850Z,10.00
2018-03-27T11:57:54.332Z,9.87
2018-03-27T12:00:22.563Z,12.80
2018-03-27T12:02:50.057Z,10.20
2018-03-27T12:05:18.289Z,8.10
2018-03-27T12:07:45.766Z,9.93
2018-03-27T12:10:13.250Z,11.10
2018-03-27T12:12:41.487Z,12.10
2018-03-27T12:15:08.989Z,11.40
2018-03-27T12:17:36.440Z,10.57
2018-03-27T12:20:04.676Z,8.53
2018-03-27T12:22:32.148Z,10.77
2018-03-27T12:24:59.615Z,10.37
2018-03-27T12:27:27.110Z,11.33
2018-03-27T12:29:55.337Z,11.70
2018-03-27T12:32:22.811Z,11.07
2018-03-27T12:34:50.287Z,9.03
2018-03-27T12:37:18.551Z,12.83
2018-03-27T12:39:46.027Z,13.07
2018-03-27T12:42:14.322Z,14.13
2018-03-27T12:44:41.749Z,15.53
2018-03-27T12:47:09.218Z,13.20
2018-03-27T12:49:38.247Z,12.37
2018-03-27T12:52:05.735Z,19.30
2018-03-27T12:54:33.205Z,14.57
2018-03-27T12:57:00.689Z,10.60
2018-03-27T12:59:28.947Z,13.87
2018-03-27T13:01:56.424Z,12.30
2018-03-27T13:04:24.738Z,11.37
2018-03-27T13:06:52.203Z,15.60
2018-03-27T13:09:19.674Z,14.53
2018-03-27T13:11:47.173Z,13.43
2018-03-27T13:14:14.632Z,11.70
2018-03-27T13:16:42.879Z,10.43
2018-03-27T13:19:10.352Z,9.63
2018-03-27T13:21:37.924Z,12.17
2018-03-27T13:24:06.172Z,10.90
2018-03-27T13:26:33.638Z,14.60
2018-03-27T13:29:01.119Z,12.50
2018-03-27T13:31:29.368Z,11.77
2018-03-27T13:33:56.850Z,11.80
2018-03-27T13:36:24.310Z,11.83
2018-03-27T13:38:52.570Z,11.97
2018-03-27T13:41:20.035Z,12.47
2018-03-27T13:43:47.503Z,13.60
2018-03-27T13:46:15.744Z,11.43
2018-03-27T13:48:43.224Z,11.10
2018-03-27T13:51:10.695Z,13.37
2018-03-27T13:53:38.187Z,13.83
2018-03-27T13:56:05.653Z,13.60
2018-03-27T13:58:33.136Z,15.67
2018-03-27T14:01:00.610Z,12.57
2018-03-27T14:03:28.089Z,11.27
2018-03-27T14:05:55.551Z,16.17
2018-03-27T14:08:23.792Z,10.60
2018-03-27T14:10:51.259Z,12.23
2018-03-27T14:13:18.743Z,13.53
2018-03-27T14:15:46.212Z,13.67
2018-03-27T14:18:14.756Z,16.93
2018-03-27T14:20:42.232Z,18.63
2018-03-27T14:23:09.712Z,17.63
2018-03-27T14:25:37.956Z,17.87
2018-03-27T14:28:05.437Z,13.33
2018-03-27T14:30:33.748Z,14.30
2018-03-27T14:33:01.203Z,13.07
2018-03-27T14:35:28.699Z,17.50
2018-03-27T14:37:56.207Z,14.50
2018-03-27T14:40:24.443Z,14.87
2018-03-27T14:42:51.962Z,12.90
2018-03-27T14:45:19.435Z,14.30
2018-03-27T14:47:46.912Z,15.07
2018-03-27T14:50:14.385Z,15.60
2018-03-27T14:52:41.867Z,14.30
2018-03-27T14:55:10.107Z,17.53
2018-03-27T14:57:37.594Z,13.60
2018-03-27T15:00:05.066Z,13.03
2018-03-27T15:02:33.296Z,16.10
2018-03-27T15:05:00.774Z,18.20
2018-03-27T15:07:28.249Z,15.03
2018-03-27T15:09:56.486Z,13.60
2018-03-27T15:12:23.959Z,16.07
2018-03-27T15:14:51.443Z,17.83
2018-03-27T15:17:19.695Z,16.43
2018-03-27T15:19:47.172Z,17.60
2018-03-27T15:22:14.645Z,17.40
2018-03-27T15:27:16.875Z,18.70
2018-03-27T15:29:45.044Z,17.20
2018-03-27T15:32:12.512Z,18.40
2018-03-27T15:34:39.990Z,25.00
2018-03-27T15:37:07.456Z,21.93
2018-03-27T15:39:34.959Z,19.53
2018-03-27T15:42:03.175Z,20.87
2018-03-27T15:44:30.674Z,20.07
2018-03-27T15:46:58.958Z,19.13
2018-03-27T15:49:27.204Z,21.60
2018-03-27T15:51:54.699Z,22.17
2018-03-27T15:54:22.170Z,25.80
2018-03-27T15:56:49.658Z,22.17
2018-03-27T15:59:17.151Z,21.27
2018-03-27T16:01:44.623Z,19.00
2018-03-27T16:04:12.863Z,22.43
2018-03-27T16:06:40.336Z,20.83
2018-03-27T16:09:07.874Z,25.77
2018-03-27T16:11:35.348Z,22.77
2018-03-27T16:14:02.833Z,22.70
2018-03-27T16:16:31.092Z,21.97
2018-03-27T16:18:58.587Z,22.27
2018-03-27T16:21:26.058Z,24.00
2018-03-27T16:23:53.543Z,22.80
2018-03-27T16:26:21.024Z,32.87
2018-03-27T16:28:48.529Z,21.00
2018-03-27T16:31:16.814Z,25.93
2018-03-27T16:33:44.534Z,25.03
2018-03-27T16:36:12.012Z,25.50
2018-03-27T16:38:40.250Z,24.93
2018-03-27T16:41:07.720Z,26.03
2018-03-27T16:43:35.241Z,26.00
2018-03-27T16:51:49.793Z,26.17
2018-03-27T16:54:18.051Z,23.37
2018-03-27T16:56:45.533Z,25.03
2018-03-27T16:59:13.775Z,26.70
2018-03-27T17:01:41.272Z,26.30
2018-03-27T17:04:08.736Z,21.97
2018-03-27T17:06:36.219Z,30.03
2018-03-27T17:09:03.700Z,25.27
2018-03-27T17:11:32.194Z,30.60
2018-03-27T17:13:59.697Z,24.93
2018-03-27T17:16:27.928Z,24.30
2018-03-27T17:18:55.408Z,26.47
2018-03-27T17:21:22.927Z,26.27
2018-03-27T17:23:50.402Z,30.60
2018-03-27T17:26:17.871Z,28.80
2018-03-27T17:28:45.355Z,30.20
2018-03-27T17:31:13.594Z,32.13
2018-03-27T17:33:41.841Z,26.33
2018-03-27T17:36:09.311Z,28.77
2018-03-27T17:38:36.790Z,26.37
2018-03-27T17:41:04.259Z,27.67
2018-03-27T17:43:31.740Z,27.30
2018-03-27T17:45:59.975Z,28.07
2018-03-27T17:48:27.469Z,27.43
2018-03-27T17:50:55.715Z,26.80
2018-03-27T17:53:23.182Z,26.77
2018-03-27T17:55:50.654Z,30.23
2018-03-27T17:58:18.130Z,27.63
2018-03-27T18:00:46.380Z,31.37
2018-03-27T18:03:13.844Z,28.30
2018-03-27T18:05:41.311Z,30.47
2018-03-27T18:08:09.540Z,29.20
2018-03-27T18:13:10.983Z,29.53
2018-03-27T18:15:38.455Z,26.60
2018-03-27T18:18:05.934Z,25.73
2018-03-27T18:20:33.410Z,27.80
2018-03-27T18:23:00.875Z,27.87
2018-03-27T18:25:28.368Z,26.57
2018-03-27T18:27:55.835Z,29.73
2018-03-27T18:30:23.307Z,24.17
2018-03-27T18:32:50.774Z,23.70
2018-03-27T18:35:18.251Z,23.83
2018-03-27T18:37:45.733Z,25.27
2018-03-27T18:40:13.211Z,29.03
2018-03-27T18:42:41.443Z,26.23
2018-03-27T18:45:08.944Z,26.50
2018-03-27T18:47:37.176Z,24.87
2018-03-27T18:50:04.658Z,26.60
2018-03-27T18:52:32.125Z,23.83
2018-03-27T18:55:00.371Z,27.37
2018-03-27T18:57:27.859Z,26.13
2018-03-27T18:59:56.057Z,24.77
2018-03-27T19:02:23.523Z,28.37
2018-03-27T19:04:51.024Z,24.00
2018-03-27T19:07:18.476Z,29.50
2018-03-27T19:09:45.947Z,21.97
2018-03-27T19:12:13.419Z,26.23
2018-03-27T19:14:40.938Z,25.33
2018-03-27T19:17:08.407Z,28.40
2018-03-27T19:19:35.892Z,24.73
2018-03-27T19:22:03.367Z,29.90
2018-03-27T19:24:31.606Z,26.03
2018-03-27T19:26:59.071Z,26.37
2018-03-27T19:29:26.552Z,25.37
2018-03-27T19:31:54.792Z,30.10
2018-03-27T19:34:22.284Z,28.47
2018-03-27T19:36:49.778Z,31.40
2018-03-27T19:39:17.258Z,32.37
2018-03-27T19:41:44.735Z,30.00
2018-03-27T19:44:12.224Z,31.20
2018-03-27T19:46:40.498Z,30.77
2018-03-27T19:49:07.941Z,32.10
2018-03-27T19:51:35.415Z,31.30
2018-03-27T19:54:02.908Z,30.73
2018-03-27T19:56:30.397Z,29.40
2018-03-27T19:58:57.871Z,30.03
2018-03-27T20:01:25.364Z,31.40
2018-03-27T20:03:53.605Z,32.53
2018-03-27T20:06:21.084Z,31.97
2018-03-27T20:08:48.546Z,32.17
2018-03-27T20:11:16.808Z,28.57
2018-03-27T20:13:44.284Z,31.27
2018-03-27T20:16:12.535Z,30.10
2018-03-27T20:18:40.004Z,30.37
2018-03-27T20:21:07.487Z,29.63
2018-03-27T20:23:35.726Z,34.17
2018-03-27T20:26:03.215Z,29.10
2018-03-27T20:28:31.458Z,26.67
2018-03-27T20:30:58.958Z,28.87
2018-03-27T20:33:27.187Z,32.57
2018-03-27T20:35:54.671Z,27.47
2018-03-27T20:38:22.140Z,26.73
2018-03-27T20:40:50.383Z,34.07
2018-03-27T20:43:17.880Z,32.53
2018-03-27T20:45:46.126Z,30.97
2018-03-27T20:48:13.620Z,26.90
2018-03-27T20:50:41.876Z,32.90
2018-03-27T20:53:09.351Z,32.03
2018-03-27T20:55:37.596Z,32.80
2018-03-27T20:58:05.062Z,30.90
2018-03-27T21:00:32.557Z,30.43
2018-03-27T21:03:00.042Z,33.57
2018-03-27T21:05:27.608Z,32.87
2018-03-27T21:07:55.161Z,32.70
2018-03-27T21:10:22.640Z,30.57
2018-03-27T21:12:50.144Z,30.00
2018-03-27T21:15:18.376Z,30.60
2018-03-27T21:17:45.850Z,31.67
2018-03-27T21:20:13.363Z,29.20
2018-03-27T21:22:40.831Z,33.60
2018-03-27T21:25:08.312Z,35.90
2018-03-27T21:27:35.805Z,30.07
2018-03-27T21:30:03.253Z,32.53
2018-03-27T21:32:30.743Z,32.67
2018-03-27T21:34:58.287Z,28.33
2018-03-27T21:37:25.727Z,27.27
2018-03-27T21:39:53.204Z,31.70
2018-03-27T21:42:21.687Z,34.03
2018-03-27T21:44:49.930Z,28.83
2018-03-27T21:47:17.403Z,36.80
2018-03-27T21:49:44.879Z,30.40
2018-03-27T21:52:13.161Z,30.97
2018-03-27T21:54:40.603Z,28.37
2018-03-27T21:57:08.850Z,29.60
2018-03-27T21:59:36.327Z,32.07
2018-03-27T22:02:03.803Z,29.67
2018-03-27T22:04:32.051Z,34.80
2018-03-27T22:06:59.544Z,35.37
2018-03-27T22:09:27.791Z,29.60
2018-03-27T22:11:55.281Z,34.40
2018-03-27T22:14:23.516Z,33.37
2018-03-27T22:16:50.997Z,30.40
2018-03-27T22:19:18.467Z,32.90
2018-03-27T22:21:47.549Z,32.40
2018-03-27T22:24:15.019Z,33.57
2018-03-27T22:26:43.340Z,34.87
2018-03-27T22:29:10.812Z,32.20
2018-03-27T22:31:38.466Z,32.50
2018-03-27T22:34:05.954Z,28.33
2018-03-27T22:36:33.434Z,36.33
2018-03-27T22:39:01.912Z,32.20
2018-03-27T22:41:29.390Z,36.20
2018-03-27T22:43:56.891Z,35.33
2018-03-27T22:46:24.391Z,34.00
2018-03-27T22:48:52.641Z,32.03
2018-03-27T22:51:20.115Z,34.57
2018-03-27T22:53:47.583Z,34.30
2018-03-27T22:56:15.835Z,38.43
2018-03-27T22:58:43.310Z,42.47
2018-03-27T23:01:10.793Z,40.67
2018-03-27T23:03:39.022Z,36.73
2018-03-27T23:06:06.508Z,41.30
2018-03-27T23:08:33.962Z,34.37
2018-03-27T23:11:01.452Z,41.17
2018-03-27T23:13:29.679Z,37.50
2018-03-27T23:15:57.158Z,36.60
2018-03-27T23:18:24.635Z,40.13
2018-03-27T23:20:52.888Z,44.90
2018-03-27T23:23:20.359Z,42.07
2018-03-27T23:25:48.612Z,42.40
2018-03-27T23:28:16.079Z,40.33
2018-03-27T23:30:43.595Z,36.67
2018-03-27T23:33:11.071Z,43.03
2018-03-27T23:35:38.539Z,37.40
2018-03-27T23:38:06.018Z,37.23
2018-03-27T23:40:33.483Z,37.47
2018-03-27T23:43:01.735Z,35.80
2018-03-27T23:45:29.194Z,40.43
2018-03-27T23:47:56.679Z,45.63
2018-03-27T23:50:24.918Z,42.63
2018-03-27T23:52:52.399Z,44.63
2018-03-27T23:55:19.874Z,43.43
2018-03-27T23:57:48.651Z,38.20
